sensor_id;sensor_type;location;lat;lon;timestamp;temperature;humidity
17346;DHT22;8790;53.590;10.002;2023-03-12T00:00:44;3.10;99.90
17346;DHT22;8790;53.590;10.002;2023-03-12T00:03:16;3.00;99.90
17346;DHT22;8790;53.590;10.002;2023-03-12T00:05:48;3.00;99.90
17346;DHT22;8790;53.590;10.002;2023-03-12T00:08:20;3.00;99.90
17346;DHT22;8790;53.590;10.002;2023-03-12T00:10:53;3.00;99.90
17346;DHT22;8790;53.590;10.002;2023-03-12T00:13:24;3.10;99.90
17346;DHT22;8790;53.590;10.002;2023-03-12T00:15:56;3.10;99.90
17346;DHT22;8790;53.590;10.002;2023-03-12T00:18:28;3.10;99.90
17346;DHT22;8790;53.590;10.002;2023-03-12T00:20:59;3.00;99.90
17346;DHT22;8790;53.590;10.002;2023-03-12T00:23:31;3.00;99.90
17346;DHT22;8790;53.590;10.002;2023-03-12T00:26:06;3.10;99.90
17346;DHT22;8790;53.590;10.002;2023-03-12T00:28:39;3.10;99.90
17346;DHT22;8790;53.590;10.002;2023-03-12T00:31:16;3.10;99.90
17346;DHT22;8790;53.590;10.002;2023-03-12T00:33:48;3.10;99.90
17346;DHT22;8790;53.590;10.002;2023-03-12T00:36:22;3.10;99.90
17346;DHT22;8790;53.590;10.002;2023-03-12T00:38:55;3.10;99.90
17346;DHT22;8790;53.590;10.002;2023-03-12T00:41:28;3.10;99.90
17346;DHT22;8790;53.590;10.002;2023-03-12T00:44:00;3.10;99.90
17346;DHT22;8790;53.590;10.002;2023-03-12T00:46:32;3.10;99.90
17346;DHT22;8790;53.590;10.002;2023-03-12T00:49:04;3.00;99.90
17346;DHT22;8790;53.590;10.002;2023-03-12T00:51:35;3.00;99.90
17346;DHT22;8790;53.590;10.002;2023-03-12T00:54:07;3.00;99.90
17346;DHT22;8790;53.590;10.002;2023-03-12T00:56:41;3.00;99.90
17346;DHT22;8790;53.590;10.002;2023-03-12T00:59:12;3.00;99.90
17346;DHT22;8790;53.590;10.002;2023-03-12T01:01:44;3.00;99.90
17346;DHT22;8790;53.590;10.002;2023-03-12T01:04:16;2.90;99.90
17346;DHT22;8790;53.590;10.002;2023-03-12T01:06:48;2.90;99.90
17346;DHT22;8790;53.590;10.002;2023-03-12T01:09:20;2.90;99.90
17346;DHT22;8790;53.590;10.002;2023-03-12T01:11:52;2.90;99.90
17346;DHT22;8790;53.590;10.002;2023-03-12T01:14:24;2.90;99.90
17346;DHT22;8790;53.590;10.002;2023-03-12T01:16:56;2.90;99.90
17346;DHT22;8790;53.590;10.002;2023-03-12T01:19:28;2.90;99.90
17346;DHT22;8790;53.590;10.002;2023-03-12T01:22:00;2.90;99.90
17346;DHT22;8790;53.590;10.002;2023-03-12T01:24:33;3.00;99.90
17346;DHT22;8790;53.590;10.002;2023-03-12T01:27:06;3.00;99.90
17346;DHT22;8790;53.590;10.002;2023-03-12T01:29:37;2.90;99.90
17346;DHT22;8790;53.590;10.002;2023-03-12T01:32:09;2.90;99.90
17346;DHT22;8790;53.590;10.002;2023-03-12T01:34:41;2.90;99.90
17346;DHT22;8790;53.590;10.002;2023-03-12T01:37:13;2.80;99.90
17346;DHT22;8790;53.590;10.002;2023-03-12T01:39:45;2.80;99.90
17346;DHT22;8790;53.590;10.002;2023-03-12T01:42:18;2.90;99.90
17346;DHT22;8790;53.590;10.002;2023-03-12T01:44:51;2.90;99.90
17346;DHT22;8790;53.590;10.002;2023-03-12T01:47:24;2.90;99.90
17346;DHT22;8790;53.590;10.002;2023-03-12T01:49:56;2.90;99.90
17346;DHT22;8790;53.590;10.002;2023-03-12T01:52:31;2.90;99.90
17346;DHT22;8790;53.590;10.002;2023-03-12T01:55:08;2.90;99.90
17346;DHT22;8790;53.590;10.002;2023-03-12T01:57:47;2.90;99.90
17346;DHT22;8790;53.590;10.002;2023-03-12T02:00:23;2.90;99.90
17346;DHT22;8790;53.590;10.002;2023-03-12T02:03:00;2.90;99.90
17346;DHT22;8790;53.590;10.002;2023-03-12T02:05:41;2.90;99.90
17346;DHT22;8790;53.590;10.002;2023-03-12T02:08:16;3.00;99.90
17346;DHT22;8790;53.590;10.002;2023-03-12T02:10:49;3.00;99.90
17346;DHT22;8790;53.590;10.002;2023-03-12T02:13:22;3.00;99.90
17346;DHT22;8790;53.590;10.002;2023-03-12T02:15:54;3.00;99.90
17346;DHT22;8790;53.590;10.002;2023-03-12T02:18:26;3.00;99.90
17346;DHT22;8790;53.590;10.002;2023-03-12T02:21:03;3.00;99.90
17346;DHT22;8790;53.590;10.002;2023-03-12T02:23:40;3.00;99.90
17346;DHT22;8790;53.590;10.002;2023-03-12T02:26:15;3.00;99.90
17346;DHT22;8790;53.590;10.002;2023-03-12T02:28:49;3.00;99.90
17346;DHT22;8790;53.590;10.002;2023-03-12T02:31:24;2.90;99.90
17346;DHT22;8790;53.590;10.002;2023-03-12T02:33:56;3.00;99.90
17346;DHT22;8790;53.590;10.002;2023-03-12T02:36:30;3.10;99.90
17346;DHT22;8790;53.590;10.002;2023-03-12T02:39:02;3.00;99.90
17346;DHT22;8790;53.590;10.002;2023-03-12T02:41:38;3.10;99.90
17346;DHT22;8790;53.590;10.002;2023-03-12T02:44:12;2.90;99.90
17346;DHT22;8790;53.590;10.002;2023-03-12T02:46:46;2.90;99.90
17346;DHT22;8790;53.590;10.002;2023-03-12T02:49:20;2.90;99.90
17346;DHT22;8790;53.590;10.002;2023-03-12T02:51:52;3.00;99.90
17346;DHT22;8790;53.590;10.002;2023-03-12T02:54:25;2.90;99.90
17346;DHT22;8790;53.590;10.002;2023-03-12T02:56:58;3.00;99.90
17346;DHT22;8790;53.590;10.002;2023-03-12T02:59:32;2.90;99.90
17346;DHT22;8790;53.590;10.002;2023-03-12T03:02:04;2.90;99.90
17346;DHT22;8790;53.590;10.002;2023-03-12T03:04:36;2.90;99.90
17346;DHT22;8790;53.590;10.002;2023-03-12T03:07:08;2.90;99.90
17346;DHT22;8790;53.590;10.002;2023-03-12T03:09:39;2.90;99.90
17346;DHT22;8790;53.590;10.002;2023-03-12T03:12:13;2.80;99.90
17346;DHT22;8790;53.590;10.002;2023-03-12T03:14:45;2.70;99.90
17346;DHT22;8790;53.590;10.002;2023-03-12T03:17:17;2.70;99.90
17346;DHT22;8790;53.590;10.002;2023-03-12T03:19:49;2.80;99.90
17346;DHT22;8790;53.590;10.002;2023-03-12T03:22:21;2.80;99.90
17346;DHT22;8790;53.590;10.002;2023-03-12T03:24:53;2.80;99.90
17346;DHT22;8790;53.590;10.002;2023-03-12T03:27:26;2.80;99.90
17346;DHT22;8790;53.590;10.002;2023-03-12T03:29:58;2.70;99.90
17346;DHT22;8790;53.590;10.002;2023-03-12T03:32:30;2.60;99.90
17346;DHT22;8790;53.590;10.002;2023-03-12T03:35:02;2.60;99.90
17346;DHT22;8790;53.590;10.002;2023-03-12T03:37:34;2.60;99.90
17346;DHT22;8790;53.590;10.002;2023-03-12T03:40:06;2.60;99.90
17346;DHT22;8790;53.590;10.002;2023-03-12T03:42:42;2.60;99.90
17346;DHT22;8790;53.590;10.002;2023-03-12T03:45:14;2.60;99.90
17346;DHT22;8790;53.590;10.002;2023-03-12T03:47:48;2.70;99.90
17346;DHT22;8790;53.590;10.002;2023-03-12T03:50:19;2.60;99.90
17346;DHT22;8790;53.590;10.002;2023-03-12T03:52:51;2.60;99.90
17346;DHT22;8790;53.590;10.002;2023-03-12T03:55:23;2.60;99.90
17346;DHT22;8790;53.590;10.002;2023-03-12T03:57:57;2.60;99.90
17346;DHT22;8790;53.590;10.002;2023-03-12T04:00:28;2.50;99.90
17346;DHT22;8790;53.590;10.002;2023-03-12T04:03:00;2.50;99.90
17346;DHT22;8790;53.590;10.002;2023-03-12T04:05:32;2.60;99.90
17346;DHT22;8790;53.590;10.002;2023-03-12T04:08:04;2.50;99.90
17346;DHT22;8790;53.590;10.002;2023-03-12T04:10:37;2.50;99.90
17346;DHT22;8790;53.590;10.002;2023-03-12T04:13:10;2.60;99.90
17346;DHT22;8790;53.590;10.002;2023-03-12T04:15:45;2.50;99.90
17346;DHT22;8790;53.590;10.002;2023-03-12T04:18:18;2.50;99.90
17346;DHT22;8790;53.590;10.002;2023-03-12T04:20:50;2.40;99.90
17346;DHT22;8790;53.590;10.002;2023-03-12T04:23:22;2.40;99.90
17346;DHT22;8790;53.590;10.002;2023-03-12T04:25:53;2.40;99.90
17346;DHT22;8790;53.590;10.002;2023-03-12T04:28:27;2.40;99.90
17346;DHT22;8790;53.590;10.002;2023-03-12T04:31:00;2.40;99.90
17346;DHT22;8790;53.590;10.002;2023-03-12T04:33:39;2.40;99.90
17346;DHT22;8790;53.590;10.002;2023-03-12T04:36:12;2.40;99.90
17346;DHT22;8790;53.590;10.002;2023-03-12T04:38:47;2.30;99.90
17346;DHT22;8790;53.590;10.002;2023-03-12T04:41:20;2.30;99.90
17346;DHT22;8790;53.590;10.002;2023-03-12T04:43:58;2.20;99.90
17346;DHT22;8790;53.590;10.002;2023-03-12T04:46:30;2.30;99.90
17346;DHT22;8790;53.590;10.002;2023-03-12T04:49:02;2.30;99.90
17346;DHT22;8790;53.590;10.002;2023-03-12T04:51:36;2.30;99.90
17346;DHT22;8790;53.590;10.002;2023-03-12T04:54:09;2.20;99.90
17346;DHT22;8790;53.590;10.002;2023-03-12T04:56:42;2.20;99.90
17346;DHT22;8790;53.590;10.002;2023-03-12T04:59:16;2.20;99.90
17346;DHT22;8790;53.590;10.002;2023-03-12T05:01:49;2.20;99.90
17346;DHT22;8790;53.590;10.002;2023-03-12T05:04:26;2.20;99.90
17346;DHT22;8790;53.590;10.002;2023-03-12T05:07:00;2.20;99.90
17346;DHT22;8790;53.590;10.002;2023-03-12T05:09:31;2.20;99.90
17346;DHT22;8790;53.590;10.002;2023-03-12T05:12:03;2.20;99.90
17346;DHT22;8790;53.590;10.002;2023-03-12T05:14:37;2.20;99.90
17346;DHT22;8790;53.590;10.002;2023-03-12T05:17:10;2.20;99.90
17346;DHT22;8790;53.590;10.002;2023-03-12T05:19:42;2.10;99.90
17346;DHT22;8790;53.590;10.002;2023-03-12T05:22:14;2.20;99.90
17346;DHT22;8790;53.590;10.002;2023-03-12T05:24:45;2.20;99.90
17346;DHT22;8790;53.590;10.002;2023-03-12T05:27:17;2.20;99.90
17346;DHT22;8790;53.590;10.002;2023-03-12T05:29:51;2.20;99.90
17346;DHT22;8790;53.590;10.002;2023-03-12T05:32:24;2.20;99.90
17346;DHT22;8790;53.590;10.002;2023-03-12T05:34:56;2.20;99.90
17346;DHT22;8790;53.590;10.002;2023-03-12T05:37:28;2.20;99.90
17346;DHT22;8790;53.590;10.002;2023-03-12T05:40:00;2.20;99.90
17346;DHT22;8790;53.590;10.002;2023-03-12T05:42:33;2.30;99.90
17346;DHT22;8790;53.590;10.002;2023-03-12T05:45:08;2.20;99.90
17346;DHT22;8790;53.590;10.002;2023-03-12T05:47:41;2.20;99.90
17346;DHT22;8790;53.590;10.002;2023-03-12T05:50:14;2.20;99.90
17346;DHT22;8790;53.590;10.002;2023-03-12T05:52:47;2.10;99.90
17346;DHT22;8790;53.590;10.002;2023-03-12T05:55:19;2.10;99.90
17346;DHT22;8790;53.590;10.002;2023-03-12T05:57:51;2.20;99.90
17346;DHT22;8790;53.590;10.002;2023-03-12T06:00:24;2.20;99.90
17346;DHT22;8790;53.590;10.002;2023-03-12T06:02:59;2.30;99.90
17346;DHT22;8790;53.590;10.002;2023-03-12T06:05:32;2.20;99.90
17346;DHT22;8790;53.590;10.002;2023-03-12T06:08:04;2.20;99.90
17346;DHT22;8790;53.590;10.002;2023-03-12T06:10:37;2.30;99.90
17346;DHT22;8790;53.590;10.002;2023-03-12T06:13:09;2.30;99.90
17346;DHT22;8790;53.590;10.002;2023-03-12T06:15:42;2.30;99.90
17346;DHT22;8790;53.590;10.002;2023-03-12T06:18:14;2.30;99.90
17346;DHT22;8790;53.590;10.002;2023-03-12T06:20:46;2.40;99.90
17346;DHT22;8790;53.590;10.002;2023-03-12T06:23:18;2.30;99.90
17346;DHT22;8790;53.590;10.002;2023-03-12T06:25:50;2.30;99.90
17346;DHT22;8790;53.590;10.002;2023-03-12T06:28:22;2.30;99.90
17346;DHT22;8790;53.590;10.002;2023-03-12T06:30:55;2.30;99.90
17346;DHT22;8790;53.590;10.002;2023-03-12T06:33:27;2.20;99.90
17346;DHT22;8790;53.590;10.002;2023-03-12T06:36:00;2.20;99.90
17346;DHT22;8790;53.590;10.002;2023-03-12T06:38:33;2.20;99.90
17346;DHT22;8790;53.590;10.002;2023-03-12T06:41:07;2.20;99.90
17346;DHT22;8790;53.590;10.002;2023-03-12T06:43:40;2.20;99.90
17346;DHT22;8790;53.590;10.002;2023-03-12T06:46:15;2.20;99.90
17346;DHT22;8790;53.590;10.002;2023-03-12T06:48:47;2.20;99.90
17346;DHT22;8790;53.590;10.002;2023-03-12T06:51:19;2.20;99.90
17346;DHT22;8790;53.590;10.002;2023-03-12T06:53:50;2.20;99.90
17346;DHT22;8790;53.590;10.002;2023-03-12T06:56:22;2.10;99.90
17346;DHT22;8790;53.590;10.002;2023-03-12T06:58:54;2.10;99.90
17346;DHT22;8790;53.590;10.002;2023-03-12T07:01:27;2.20;99.90
17346;DHT22;8790;53.590;10.002;2023-03-12T07:03:59;2.30;99.90
17346;DHT22;8790;53.590;10.002;2023-03-12T07:06:30;2.20;99.90
17346;DHT22;8790;53.590;10.002;2023-03-12T07:09:04;2.20;99.90
17346;DHT22;8790;53.590;10.002;2023-03-12T07:11:35;2.20;99.90
17346;DHT22;8790;53.590;10.002;2023-03-12T07:14:07;2.20;99.90
17346;DHT22;8790;53.590;10.002;2023-03-12T07:16:40;2.30;99.90
17346;DHT22;8790;53.590;10.002;2023-03-12T07:19:13;2.20;99.90
17346;DHT22;8790;53.590;10.002;2023-03-12T07:21:44;2.20;99.90
17346;DHT22;8790;53.590;10.002;2023-03-12T07:24:16;2.30;99.90
17346;DHT22;8790;53.590;10.002;2023-03-12T07:26:48;2.30;99.90
17346;DHT22;8790;53.590;10.002;2023-03-12T07:29:19;2.50;99.90
17346;DHT22;8790;53.590;10.002;2023-03-12T07:31:52;2.50;99.90
17346;DHT22;8790;53.590;10.002;2023-03-12T07:34:24;2.50;99.90
17346;DHT22;8790;53.590;10.002;2023-03-12T07:36:56;2.50;99.90
17346;DHT22;8790;53.590;10.002;2023-03-12T07:39:27;2.60;99.90
17346;DHT22;8790;53.590;10.002;2023-03-12T07:41:59;2.60;99.90
17346;DHT22;8790;53.590;10.002;2023-03-12T07:44:32;2.50;99.90
17346;DHT22;8790;53.590;10.002;2023-03-12T07:47:07;2.60;99.90
17346;DHT22;8790;53.590;10.002;2023-03-12T07:49:39;2.50;99.90
17346;DHT22;8790;53.590;10.002;2023-03-12T07:52:11;2.50;99.90
17346;DHT22;8790;53.590;10.002;2023-03-12T07:54:43;2.50;99.90
17346;DHT22;8790;53.590;10.002;2023-03-12T07:57:14;2.60;99.90
17346;DHT22;8790;53.590;10.002;2023-03-12T07:59:46;2.60;99.90
17346;DHT22;8790;53.590;10.002;2023-03-12T08:02:19;2.70;99.90
17346;DHT22;8790;53.590;10.002;2023-03-12T08:04:51;2.80;99.90
17346;DHT22;8790;53.590;10.002;2023-03-12T08:07:23;2.80;99.90
17346;DHT22;8790;53.590;10.002;2023-03-12T08:09:54;2.90;99.90
17346;DHT22;8790;53.590;10.002;2023-03-12T08:12:27;3.00;99.90
17346;DHT22;8790;53.590;10.002;2023-03-12T08:14:59;3.00;99.90
17346;DHT22;8790;53.590;10.002;2023-03-12T08:17:32;3.10;99.90
17346;DHT22;8790;53.590;10.002;2023-03-12T08:20:04;3.20;99.90
17346;DHT22;8790;53.590;10.002;2023-03-12T08:22:39;3.10;99.90
17346;DHT22;8790;53.590;10.002;2023-03-12T08:25:11;3.20;99.90
17346;DHT22;8790;53.590;10.002;2023-03-12T08:27:42;3.30;99.90
17346;DHT22;8790;53.590;10.002;2023-03-12T08:30:15;3.30;99.90
17346;DHT22;8790;53.590;10.002;2023-03-12T08:32:48;3.30;99.90
17346;DHT22;8790;53.590;10.002;2023-03-12T08:35:20;3.40;99.90
17346;DHT22;8790;53.590;10.002;2023-03-12T08:37:52;3.50;99.90
17346;DHT22;8790;53.590;10.002;2023-03-12T08:40:24;3.50;99.90
17346;DHT22;8790;53.590;10.002;2023-03-12T08:42:56;3.50;99.90
17346;DHT22;8790;53.590;10.002;2023-03-12T08:45:27;3.50;99.90
17346;DHT22;8790;53.590;10.002;2023-03-12T08:48:00;3.50;99.90
17346;DHT22;8790;53.590;10.002;2023-03-12T08:50:32;3.60;99.90
17346;DHT22;8790;53.590;10.002;2023-03-12T08:53:04;3.60;99.90
17346;DHT22;8790;53.590;10.002;2023-03-12T08:55:36;3.60;99.90
17346;DHT22;8790;53.590;10.002;2023-03-12T08:58:08;3.60;99.90
17346;DHT22;8790;53.590;10.002;2023-03-12T09:00:40;3.70;99.90
17346;DHT22;8790;53.590;10.002;2023-03-12T09:03:13;3.80;99.90
17346;DHT22;8790;53.590;10.002;2023-03-12T09:05:44;3.80;99.90
17346;DHT22;8790;53.590;10.002;2023-03-12T09:08:16;3.70;99.90
17346;DHT22;8790;53.590;10.002;2023-03-12T09:10:48;3.60;99.90
17346;DHT22;8790;53.590;10.002;2023-03-12T09:13:20;3.70;99.90
17346;DHT22;8790;53.590;10.002;2023-03-12T09:15:52;3.70;99.90
17346;DHT22;8790;53.590;10.002;2023-03-12T09:18:31;3.80;99.90
17346;DHT22;8790;53.590;10.002;2023-03-12T09:21:03;3.90;99.90
17346;DHT22;8790;53.590;10.002;2023-03-12T09:23:36;3.90;99.90
17346;DHT22;8790;53.590;10.002;2023-03-12T09:26:08;3.90;99.90
17346;DHT22;8790;53.590;10.002;2023-03-12T09:28:40;4.00;99.90
17346;DHT22;8790;53.590;10.002;2023-03-12T09:31:14;4.00;99.90
17346;DHT22;8790;53.590;10.002;2023-03-12T09:33:47;4.10;99.90
17346;DHT22;8790;53.590;10.002;2023-03-12T09:36:19;4.20;99.90
17346;DHT22;8790;53.590;10.002;2023-03-12T09:38:50;4.00;99.90
17346;DHT22;8790;53.590;10.002;2023-03-12T09:41:26;4.10;99.90
17346;DHT22;8790;53.590;10.002;2023-03-12T09:44:02;4.10;99.90
17346;DHT22;8790;53.590;10.002;2023-03-12T09:46:39;4.20;99.90
17346;DHT22;8790;53.590;10.002;2023-03-12T09:49:21;4.20;99.90
17346;DHT22;8790;53.590;10.002;2023-03-12T09:51:59;4.20;99.90
17346;DHT22;8790;53.590;10.002;2023-03-12T09:54:40;4.20;99.90
17346;DHT22;8790;53.590;10.002;2023-03-12T09:57:22;4.30;99.90
17346;DHT22;8790;53.590;10.002;2023-03-12T10:00:06;4.30;99.90
17346;DHT22;8790;53.590;10.002;2023-03-12T10:03:09;4.40;99.90
17346;DHT22;8790;53.590;10.002;2023-03-12T10:06:00;4.40;99.90
17346;DHT22;8790;53.590;10.002;2023-03-12T10:08:45;4.40;99.90
17346;DHT22;8790;53.590;10.002;2023-03-12T10:11:31;4.40;99.90
17346;DHT22;8790;53.590;10.002;2023-03-12T10:14:15;4.50;99.90
17346;DHT22;8790;53.590;10.002;2023-03-12T10:23:00;4.70;99.90
17346;DHT22;8790;53.590;10.002;2023-03-12T10:25:40;4.90;99.90
17346;DHT22;8790;53.590;10.002;2023-03-12T10:28:17;5.00;99.90
17346;DHT22;8790;53.590;10.002;2023-03-12T10:30:52;5.10;99.90
17346;DHT22;8790;53.590;10.002;2023-03-12T10:33:35;5.10;99.90
17346;DHT22;8790;53.590;10.002;2023-03-12T10:36:14;5.20;99.90
17346;DHT22;8790;53.590;10.002;2023-03-12T10:38:48;5.20;99.90
17346;DHT22;8790;53.590;10.002;2023-03-12T10:41:21;5.00;99.90
17346;DHT22;8790;53.590;10.002;2023-03-12T10:43:54;5.00;99.90
17346;DHT22;8790;53.590;10.002;2023-03-12T10:46:37;5.10;99.90
17346;DHT22;8790;53.590;10.002;2023-03-12T10:49:23;5.30;99.90
17346;DHT22;8790;53.590;10.002;2023-03-12T10:51:58;5.30;99.90
17346;DHT22;8790;53.590;10.002;2023-03-12T10:54:34;5.10;99.90
17346;DHT22;8790;53.590;10.002;2023-03-12T10:57:07;5.10;99.90
17346;DHT22;8790;53.590;10.002;2023-03-12T10:59:40;5.20;99.90
17346;DHT22;8790;53.590;10.002;2023-03-12T11:02:32;5.20;99.90
17346;DHT22;8790;53.590;10.002;2023-03-12T11:05:18;5.20;99.90
17346;DHT22;8790;53.590;10.002;2023-03-12T11:07:51;5.10;99.90
17346;DHT22;8790;53.590;10.002;2023-03-12T11:13:24;4.90;99.90
17346;DHT22;8790;53.590;10.002;2023-03-12T11:15:57;4.90;99.90
17346;DHT22;8790;53.590;10.002;2023-03-12T11:18:32;4.80;99.90
17346;DHT22;8790;53.590;10.002;2023-03-12T11:21:16;4.90;99.90
17346;DHT22;8790;53.590;10.002;2023-03-12T11:24:07;4.80;99.90
17346;DHT22;8790;53.590;10.002;2023-03-12T11:26:47;4.90;99.90
17346;DHT22;8790;53.590;10.002;2023-03-12T11:29:25;4.80;99.90
17346;DHT22;8790;53.590;10.002;2023-03-12T11:32:02;4.80;99.90
17346;DHT22;8790;53.590;10.002;2023-03-12T11:34:36;4.90;99.90
17346;DHT22;8790;53.590;10.002;2023-03-12T11:37:13;4.80;99.90
17346;DHT22;8790;53.590;10.002;2023-03-12T11:39:55;4.90;99.90
17346;DHT22;8790;53.590;10.002;2023-03-12T11:42:39;4.90;99.90
17346;DHT22;8790;53.590;10.002;2023-03-12T11:45:25;5.00;99.90
17346;DHT22;8790;53.590;10.002;2023-03-12T11:48:07;5.10;99.90
17346;DHT22;8790;53.590;10.002;2023-03-12T11:50:50;5.10;99.90
17346;DHT22;8790;53.590;10.002;2023-03-12T11:53:49;5.00;99.90
17346;DHT22;8790;53.590;10.002;2023-03-12T11:56:26;5.10;99.90
17346;DHT22;8790;53.590;10.002;2023-03-12T11:59:09;5.10;99.90
17346;DHT22;8790;53.590;10.002;2023-03-12T12:01:55;5.00;99.90
17346;DHT22;8790;53.590;10.002;2023-03-12T12:04:59;5.10;99.90
17346;DHT22;8790;53.590;10.002;2023-03-12T12:07:47;5.10;99.90
17346;DHT22;8790;53.590;10.002;2023-03-12T12:10:28;5.10;99.90
17346;DHT22;8790;53.590;10.002;2023-03-12T12:13:09;5.10;99.90
17346;DHT22;8790;53.590;10.002;2023-03-12T12:15:49;5.10;99.90
17346;DHT22;8790;53.590;10.002;2023-03-12T12:18:41;5.20;99.90
17346;DHT22;8790;53.590;10.002;2023-03-12T12:21:31;5.20;99.90
17346;DHT22;8790;53.590;10.002;2023-03-12T12:24:15;5.20;99.90
17346;DHT22;8790;53.590;10.002;2023-03-12T12:26:54;5.20;99.90
17346;DHT22;8790;53.590;10.002;2023-03-12T12:29:38;5.10;99.90
17346;DHT22;8790;53.590;10.002;2023-03-12T12:32:18;5.20;99.90
17346;DHT22;8790;53.590;10.002;2023-03-12T12:35:07;5.20;99.90
17346;DHT22;8790;53.590;10.002;2023-03-12T12:37:49;5.10;99.90
17346;DHT22;8790;53.590;10.002;2023-03-12T12:40:27;5.10;99.90
17346;DHT22;8790;53.590;10.002;2023-03-12T12:43:08;5.10;99.90
17346;DHT22;8790;53.590;10.002;2023-03-12T12:45:41;5.10;99.90
17346;DHT22;8790;53.590;10.002;2023-03-12T12:48:17;5.10;99.90
17346;DHT22;8790;53.590;10.002;2023-03-12T12:50:53;5.00;99.90
17346;DHT22;8790;53.590;10.002;2023-03-12T12:53:34;5.00;99.90
17346;DHT22;8790;53.590;10.002;2023-03-12T12:56:13;4.90;99.90
17346;DHT22;8790;53.590;10.002;2023-03-12T12:59:01;4.90;99.90
17346;DHT22;8790;53.590;10.002;2023-03-12T13:01:36;5.10;99.90
17346;DHT22;8790;53.590;10.002;2023-03-12T13:04:12;5.00;99.90
17346;DHT22;8790;53.590;10.002;2023-03-12T13:06:59;5.00;99.90
17346;DHT22;8790;53.590;10.002;2023-03-12T13:09:37;5.00;99.90
17346;DHT22;8790;53.590;10.002;2023-03-12T13:12:17;5.00;99.90
17346;DHT22;8790;53.590;10.002;2023-03-12T13:14:50;5.10;99.90
17346;DHT22;8790;53.590;10.002;2023-03-12T13:17:26;5.00;99.90
17346;DHT22;8790;53.590;10.002;2023-03-12T13:20:16;4.80;99.90
17346;DHT22;8790;53.590;10.002;2023-03-12T13:22:59;4.80;99.90
17346;DHT22;8790;53.590;10.002;2023-03-12T13:25:40;4.70;99.90
17346;DHT22;8790;53.590;10.002;2023-03-12T13:28:28;4.60;99.90
17346;DHT22;8790;53.590;10.002;2023-03-12T13:31:32;4.60;99.90
17346;DHT22;8790;53.590;10.002;2023-03-12T13:34:31;4.40;99.90
17346;DHT22;8790;53.590;10.002;2023-03-12T13:37:17;4.50;99.90
17346;DHT22;8790;53.590;10.002;2023-03-12T13:39:50;4.40;99.90
17346;DHT22;8790;53.590;10.002;2023-03-12T13:42:35;4.40;99.90
17346;DHT22;8790;53.590;10.002;2023-03-12T13:45:25;4.40;99.90
17346;DHT22;8790;53.590;10.002;2023-03-12T13:48:00;4.40;99.90
17346;DHT22;8790;53.590;10.002;2023-03-12T13:50:32;4.40;99.90
17346;DHT22;8790;53.590;10.002;2023-03-12T13:53:15;4.40;99.90
17346;DHT22;8790;53.590;10.002;2023-03-12T13:56:00;4.30;99.90
17346;DHT22;8790;53.590;10.002;2023-03-12T13:58:40;4.30;99.90
17346;DHT22;8790;53.590;10.002;2023-03-12T14:01:15;4.20;99.90
17346;DHT22;8790;53.590;10.002;2023-03-12T14:03:52;4.10;99.90
17346;DHT22;8790;53.590;10.002;2023-03-12T14:06:26;4.20;99.90
17346;DHT22;8790;53.590;10.002;2023-03-12T14:09:10;4.30;99.90
17346;DHT22;8790;53.590;10.002;2023-03-12T14:11:58;4.40;99.90
17346;DHT22;8790;53.590;10.002;2023-03-12T14:14:56;4.50;99.90
17346;DHT22;8790;53.590;10.002;2023-03-12T14:17:33;4.60;99.90
17346;DHT22;8790;53.590;10.002;2023-03-12T14:20:12;4.50;99.90
17346;DHT22;8790;53.590;10.002;2023-03-12T14:22:49;4.50;99.90
17346;DHT22;8790;53.590;10.002;2023-03-12T14:25:30;4.50;99.90
17346;DHT22;8790;53.590;10.002;2023-03-12T14:28:10;4.50;99.90
17346;DHT22;8790;53.590;10.002;2023-03-12T14:30:48;4.30;99.90
17346;DHT22;8790;53.590;10.002;2023-03-12T14:33:23;4.40;99.90
17346;DHT22;8790;53.590;10.002;2023-03-12T14:36:00;4.20;99.90
17346;DHT22;8790;53.590;10.002;2023-03-12T14:38:36;4.30;99.90
17346;DHT22;8790;53.590;10.002;2023-03-12T14:41:13;4.20;99.90
17346;DHT22;8790;53.590;10.002;2023-03-12T14:43:50;4.00;99.90
17346;DHT22;8790;53.590;10.002;2023-03-12T14:46:23;4.10;99.90
17346;DHT22;8790;53.590;10.002;2023-03-12T14:48:55;4.10;99.90
17346;DHT22;8790;53.590;10.002;2023-03-12T14:51:29;4.10;99.90
17346;DHT22;8790;53.590;10.002;2023-03-12T14:54:01;4.00;99.90
17346;DHT22;8790;53.590;10.002;2023-03-12T14:56:34;3.90;99.90
17346;DHT22;8790;53.590;10.002;2023-03-12T14:59:20;3.90;99.90
17346;DHT22;8790;53.590;10.002;2023-03-12T15:01:58;3.90;99.90
17346;DHT22;8790;53.590;10.002;2023-03-12T15:04:32;3.80;99.90
17346;DHT22;8790;53.590;10.002;2023-03-12T15:07:05;3.90;99.90
17346;DHT22;8790;53.590;10.002;2023-03-12T15:09:42;3.80;99.90
17346;DHT22;8790;53.590;10.002;2023-03-12T15:12:18;3.70;99.90
17346;DHT22;8790;53.590;10.002;2023-03-12T15:14:54;3.70;99.90
17346;DHT22;8790;53.590;10.002;2023-03-12T15:17:29;3.70;99.90
17346;DHT22;8790;53.590;10.002;2023-03-12T15:20:03;3.70;99.90
17346;DHT22;8790;53.590;10.002;2023-03-12T15:22:39;3.70;99.90
17346;DHT22;8790;53.590;10.002;2023-03-12T15:25:21;3.70;99.90
17346;DHT22;8790;53.590;10.002;2023-03-12T15:28:01;3.60;99.90
17346;DHT22;8790;53.590;10.002;2023-03-12T15:30:35;3.60;99.90
17346;DHT22;8790;53.590;10.002;2023-03-12T15:33:09;3.60;99.90
17346;DHT22;8790;53.590;10.002;2023-03-12T15:35:57;3.40;99.90
17346;DHT22;8790;53.590;10.002;2023-03-12T15:38:29;3.40;99.90
17346;DHT22;8790;53.590;10.002;2023-03-12T15:41:05;3.30;99.90
17346;DHT22;8790;53.590;10.002;2023-03-12T15:43:42;3.30;99.90
17346;DHT22;8790;53.590;10.002;2023-03-12T15:46:17;3.40;99.90
17346;DHT22;8790;53.590;10.002;2023-03-12T15:48:50;3.50;99.90
17346;DHT22;8790;53.590;10.002;2023-03-12T15:51:30;3.50;99.90
17346;DHT22;8790;53.590;10.002;2023-03-12T15:54:05;3.50;99.90
17346;DHT22;8790;53.590;10.002;2023-03-12T15:56:36;3.30;99.90
17346;DHT22;8790;53.590;10.002;2023-03-12T15:59:19;3.40;99.90
17346;DHT22;8790;53.590;10.002;2023-03-12T16:01:55;3.30;99.90
17346;DHT22;8790;53.590;10.002;2023-03-12T16:04:26;3.40;99.90
17346;DHT22;8790;53.590;10.002;2023-03-12T16:06:58;3.40;99.90
17346;DHT22;8790;53.590;10.002;2023-03-12T16:09:32;3.40;99.90
17346;DHT22;8790;53.590;10.002;2023-03-12T16:12:07;3.30;99.90
17346;DHT22;8790;53.590;10.002;2023-03-12T16:14:40;3.40;99.90
17346;DHT22;8790;53.590;10.002;2023-03-12T16:17:14;3.30;99.90
17346;DHT22;8790;53.590;10.002;2023-03-12T16:19:47;3.40;99.90
17346;DHT22;8790;53.590;10.002;2023-03-12T16:22:19;3.40;99.90
17346;DHT22;8790;53.590;10.002;2023-03-12T16:24:51;3.50;99.90
17346;DHT22;8790;53.590;10.002;2023-03-12T16:27:23;3.40;99.90
17346;DHT22;8790;53.590;10.002;2023-03-12T16:29:55;3.30;99.90
17346;DHT22;8790;53.590;10.002;2023-03-12T16:32:28;3.30;99.90
17346;DHT22;8790;53.590;10.002;2023-03-12T16:35:00;3.40;99.90
17346;DHT22;8790;53.590;10.002;2023-03-12T16:37:31;3.40;99.90
17346;DHT22;8790;53.590;10.002;2023-03-12T16:40:03;3.40;99.90
17346;DHT22;8790;53.590;10.002;2023-03-12T16:42:37;3.40;99.90
17346;DHT22;8790;53.590;10.002;2023-03-12T16:45:11;3.40;99.90